Flight Track Log - Related Links

Times and Time Zones

All times are in EDT time to prevent confusion due to time zone crossing. See the N960DL flight status page for this flight to view local times or setup timezone preferences in your user account.

Time Position Orientation Groundspeed Altitude Reporting Facility
EDT Latitude Longitude Course Direction KTS MPH feet Rate Location/Type
Mon 05:31:07 PM 33.6333 -84.4667 64° Northeast 192 221 2,000  Level Atlanta TRACON
Mon 05:32:07 PM 33.6167 -84.5333 253° West 237 273 3,400 2,158 Climbing Atlanta TRACON
Mon 05:33:00 PM 33.6951 -83.9036 101° East  Level FlightAware Approximate
Mon 05:33:01 PM 33.5667 -84.5833 220° Southwest 272 313 6,100  Level Atlanta TRACON
Mon 05:34:00 PM 33.6662 -83.7308 101° East  Level FlightAware Approximate
Mon 05:34:07 PM 33.4833 -84.5667 171° South 295 339 9,300  Level Atlanta TRACON
Mon 05:35:00 PM 33.6782 -83.5644 64° Northeast  Level FlightAware Approximate
Mon 05:35:44 PM 33.4575 -84.4122 101° East 347 399 12,300  Level Atlanta Center
Mon 05:36:00 PM 33.7427 -83.4061 64° Northeast  Level FlightAware Approximate
Mon 05:36:44 PM 33.4642 -84.2828 86° East 372 428 14,200  Level Atlanta Center
Mon 05:37:44 PM 33.5103 -84.1533 67° East 394 453 15,800 1,550 Climbing Atlanta Center
Mon 05:38:44 PM 33.5667 -84.0189 63° Northeast 424 488 17,300 1,700 Climbing Atlanta Center
Mon 05:39:44 PM 33.6167 -83.8717 68° East 459 528 19,200 1,650 Climbing Atlanta Center
Mon 05:40:44 PM 33.6478 -83.7119 77° East 479 551 20,600 1,300 Climbing Atlanta Center
Mon 05:41:44 PM 33.6931 -83.5569 71° East 484 557 21,800 1,200 Climbing Atlanta Center
Mon 05:42:44 PM 33.7550 -83.4017 64° Northeast 500 575 23,000 600 Climbing Atlanta Center
Mon 05:43:44 PM 33.8167 -83.2536 63° Northeast 500 575 23,000 400 Level Atlanta Center
Mon 05:44:44 PM 33.8764 -83.1056 64° Northeast 494 568 23,800 950 Climbing Atlanta Center
Mon 05:45:44 PM 33.9375 -82.9447 65° Northeast 483 556 24,900 1,550 Climbing Atlanta Center
Mon 05:46:44 PM 33.9967 -82.7986 64° Northeast 483 556 26,900 1,050 Climbing Atlanta Center
Mon 05:47:44 PM 34.0494 -82.6600 65° Northeast 468 539 27,000 50 Climbing Atlanta Center
Mon 05:48:44 PM 34.1042 -82.5236 64° Northeast 454 522 27,000 -650 Level Atlanta Center
Mon 05:49:44 PM 34.1589 -82.4019 61° Northeast 449 517 25,700 -1,300 Descending Atlanta Center
Mon 05:50:44 PM 34.2092 -82.2656 66° East 449 517 24,400 -1,300 Descending Atlanta Center
Mon 05:51:44 PM 34.2828 -82.1608 50° Northeast 436 502 23,100 -1,500 Descending Atlanta Center
Mon 05:52:44 PM 34.3828 -82.1358 12° North 363 418 21,400 -1,100 Descending Atlanta Center
Mon 05:53:44 PM 34.4969 -82.1106 10° North 355 409 20,900 -1,150 Descending Atlanta Center
Mon 05:54:44 PM 34.5947 -82.0858 12° North 361 415 19,100 -1,950 Descending Atlanta Center
Mon 05:55:44 PM 34.6903 -82.0531 16° North 361 415 17,000 -2,200 Descending Atlanta Center
Mon 05:56:44 PM 34.7472 -81.9608 53° Northeast 321 369 14,700 -2,100 Descending Atlanta Center
Mon 05:57:44 PM 34.7494 -81.8494 89° East 295 339 12,800 -1,350 Descending Atlanta Center
Mon 05:58:44 PM 34.7431 -81.7308 94° East 337 388 12,000 -400 Descending Atlanta Center
Mon 05:59:44 PM 34.7347 -81.6200 95° East 323 372 12,000  Level Atlanta Center
Mon 06:00:46 PM 34.7617 -81.5131 73° East 344 396 12,000  Level Atlanta Center
Mon 06:01:44 PM 34.8186 -81.4378 47° Northeast 317 365 12,000  Level Atlanta Center
Mon 06:02:47 PM 34.8978 -81.3367 46° Northeast 341 392 12,000  Level Atlanta Center
Mon 06:03:44 PM 34.9483 -81.2664 49° Northeast 341 392 12,000 -667 Level Atlanta Center
Mon 06:04:44 PM 35.0111 -81.1858 46° Northeast 335 386 10,700 -1,450 Descending Atlanta Center
Mon 06:05:44 PM 35.0761 -81.1025 46° Northeast 335 386 9,100 -850 Descending Atlanta Center
Mon 06:06:44 PM 35.1519 -81.0489 30° Northeast 313 360 9,000 -422 Descending Atlanta Center
Mon 06:07:52 PM 35.2406 -81.0025 23° Northeast 266 306 8,200 -977 Descending Atlanta Center
Mon 06:08:53 PM 35.2994 -80.9442 39° Northeast 271 312 6,900 -1,345 Descending Atlanta Center
Mon 06:09:48 PM 35.3481 -80.8814 46° Northeast 266 306 5,600 -1,426 Descending Atlanta Center
Mon 06:10:55 PM 35.3708 -80.7989 71° East 249 287 4,000 -836 Descending Atlanta Center
Mon 06:11:50 PM 35.3347 -80.7775 154° Southeast 179 206 3,900 -109 Descending Atlanta Center

Login

Don't have an account? Register now (free) for customized features, flight alerts, and more!